sensor_id;sensor_type;location;lat;lon;timestamp;temperature;humidity
32787;DHT22;19139;49.372;8.580;2023-08-08T00:00:28;22.10;92.40
32787;DHT22;19139;49.372;8.580;2023-08-08T00:02:54;22.10;92.40
32787;DHT22;19139;49.372;8.580;2023-08-08T00:05:21;22.10;92.40
32787;DHT22;19139;49.372;8.580;2023-08-08T00:07:48;22.10;92.40
32787;DHT22;19139;49.372;8.580;2023-08-08T00:10:15;22.10;92.40
32787;DHT22;19139;49.372;8.580;2023-08-08T00:12:41;22.10;92.40
32787;DHT22;19139;49.372;8.580;2023-08-08T00:15:08;22.10;92.40
32787;DHT22;19139;49.372;8.580;2023-08-08T00:17:35;22.10;92.40
32787;DHT22;19139;49.372;8.580;2023-08-08T00:20:02;22.10;92.40
32787;DHT22;19139;49.372;8.580;2023-08-08T00:22:29;22.10;92.40
32787;DHT22;19139;49.372;8.580;2023-08-08T00:24:55;22.10;92.40
32787;DHT22;19139;49.372;8.580;2023-08-08T00:27:22;22.10;92.40
32787;DHT22;19139;49.372;8.580;2023-08-08T00:29:49;22.10;92.40
32787;DHT22;19139;49.372;8.580;2023-08-08T00:32:17;22.10;92.40
32787;DHT22;19139;49.372;8.580;2023-08-08T00:34:43;22.10;92.40
32787;DHT22;19139;49.372;8.580;2023-08-08T00:37:10;22.10;92.40
32787;DHT22;19139;49.372;8.580;2023-08-08T00:39:37;22.10;92.40
32787;DHT22;19139;49.372;8.580;2023-08-08T00:42:04;22.10;92.40
32787;DHT22;19139;49.372;8.580;2023-08-08T00:44:31;22.10;92.40
32787;DHT22;19139;49.372;8.580;2023-08-08T00:46:57;22.10;92.40
32787;DHT22;19139;49.372;8.580;2023-08-08T00:49:24;22.10;92.40
32787;DHT22;19139;49.372;8.580;2023-08-08T00:51:51;22.10;92.40
32787;DHT22;19139;49.372;8.580;2023-08-08T00:54:18;22.10;92.40
32787;DHT22;19139;49.372;8.580;2023-08-08T00:56:46;22.10;92.40
32787;DHT22;19139;49.372;8.580;2023-08-08T00:59:14;22.00;92.30
32787;DHT22;19139;49.372;8.580;2023-08-08T01:01:42;22.10;92.40
32787;DHT22;19139;49.372;8.580;2023-08-08T01:04:09;22.10;92.40
32787;DHT22;19139;49.372;8.580;2023-08-08T01:06:51;22.10;92.40
32787;DHT22;19139;49.372;8.580;2023-08-08T01:09:44;22.10;92.40
32787;DHT22;19139;49.372;8.580;2023-08-08T01:12:12;22.10;92.40
32787;DHT22;19139;49.372;8.580;2023-08-08T01:14:43;22.00;92.40
32787;DHT22;19139;49.372;8.580;2023-08-08T01:17:11;22.00;92.40
32787;DHT22;19139;49.372;8.580;2023-08-08T01:19:39;22.10;92.40
32787;DHT22;19139;49.372;8.580;2023-08-08T01:22:09;22.10;92.40
32787;DHT22;19139;49.372;8.580;2023-08-08T01:24:41;22.00;92.30
32787;DHT22;19139;49.372;8.580;2023-08-08T01:27:08;22.10;92.40
32787;DHT22;19139;49.372;8.580;2023-08-08T01:29:34;22.10;92.40
32787;DHT22;19139;49.372;8.580;2023-08-08T01:32:01;22.00;92.40
32787;DHT22;19139;49.372;8.580;2023-08-08T01:34:28;22.00;92.30
32787;DHT22;19139;49.372;8.580;2023-08-08T01:36:58;22.00;92.30
32787;DHT22;19139;49.372;8.580;2023-08-08T01:39:27;22.10;92.40
32787;DHT22;19139;49.372;8.580;2023-08-08T01:41:56;22.00;92.40
32787;DHT22;19139;49.372;8.580;2023-08-08T01:44:26;22.00;92.30
32787;DHT22;19139;49.372;8.580;2023-08-08T01:46:54;22.00;92.30
32787;DHT22;19139;49.372;8.580;2023-08-08T01:49:21;22.00;92.30
32787;DHT22;19139;49.372;8.580;2023-08-08T01:51:48;22.00;92.30
32787;DHT22;19139;49.372;8.580;2023-08-08T01:54:15;22.10;92.40
32787;DHT22;19139;49.372;8.580;2023-08-08T01:56:41;22.00;92.30
32787;DHT22;19139;49.372;8.580;2023-08-08T01:59:08;22.00;92.30
32787;DHT22;19139;49.372;8.580;2023-08-08T02:01:35;22.00;92.30
32787;DHT22;19139;49.372;8.580;2023-08-08T02:04:02;22.00;92.30
32787;DHT22;19139;49.372;8.580;2023-08-08T02:06:29;22.00;92.30
32787;DHT22;19139;49.372;8.580;2023-08-08T02:08:56;22.00;92.30
32787;DHT22;19139;49.372;8.580;2023-08-08T02:11:22;22.00;92.30
32787;DHT22;19139;49.372;8.580;2023-08-08T02:13:49;22.00;92.30
32787;DHT22;19139;49.372;8.580;2023-08-08T02:16:16;22.00;92.30
32787;DHT22;19139;49.372;8.580;2023-08-08T02:18:43;22.00;92.30
32787;DHT22;19139;49.372;8.580;2023-08-08T02:21:09;22.00;92.30
32787;DHT22;19139;49.372;8.580;2023-08-08T02:23:36;22.00;92.30
32787;DHT22;19139;49.372;8.580;2023-08-08T02:26:04;22.00;92.30
32787;DHT22;19139;49.372;8.580;2023-08-08T02:28:30;22.00;92.30
32787;DHT22;19139;49.372;8.580;2023-08-08T02:30:57;22.00;92.30
32787;DHT22;19139;49.372;8.580;2023-08-08T02:33:24;22.00;92.30
32787;DHT22;19139;49.372;8.580;2023-08-08T02:35:50;22.00;92.30
32787;DHT22;19139;49.372;8.580;2023-08-08T02:38:17;22.00;92.30
32787;DHT22;19139;49.372;8.580;2023-08-08T02:40:44;22.00;92.30
32787;DHT22;19139;49.372;8.580;2023-08-08T02:43:11;22.00;92.30
32787;DHT22;19139;49.372;8.580;2023-08-08T02:45:38;22.00;92.30
32787;DHT22;19139;49.372;8.580;2023-08-08T02:48:05;22.00;92.30
32787;DHT22;19139;49.372;8.580;2023-08-08T02:50:32;22.00;92.30
32787;DHT22;19139;49.372;8.580;2023-08-08T02:52:58;22.00;92.30
32787;DHT22;19139;49.372;8.580;2023-08-08T02:55:25;22.00;92.30
32787;DHT22;19139;49.372;8.580;2023-08-08T02:57:52;22.00;92.30
32787;DHT22;19139;49.372;8.580;2023-08-08T03:00:18;22.00;92.30
32787;DHT22;19139;49.372;8.580;2023-08-08T03:02:45;22.00;92.30
32787;DHT22;19139;49.372;8.580;2023-08-08T03:05:12;22.00;92.30
32787;DHT22;19139;49.372;8.580;2023-08-08T03:07:39;22.00;92.30
32787;DHT22;19139;49.372;8.580;2023-08-08T03:10:06;22.00;92.30
32787;DHT22;19139;49.372;8.580;2023-08-08T03:12:32;22.00;92.30
32787;DHT22;19139;49.372;8.580;2023-08-08T03:14:59;22.00;92.30
32787;DHT22;19139;49.372;8.580;2023-08-08T03:17:26;22.00;92.30
32787;DHT22;19139;49.372;8.580;2023-08-08T03:19:52;22.00;92.30
32787;DHT22;19139;49.372;8.580;2023-08-08T03:22:19;22.00;92.30
32787;DHT22;19139;49.372;8.580;2023-08-08T03:24:46;22.00;92.30
32787;DHT22;19139;49.372;8.580;2023-08-08T03:27:13;22.00;92.30
32787;DHT22;19139;49.372;8.580;2023-08-08T03:29:39;22.00;92.30
32787;DHT22;19139;49.372;8.580;2023-08-08T03:32:06;22.00;92.40
32787;DHT22;19139;49.372;8.580;2023-08-08T03:34:33;22.00;92.30
32787;DHT22;19139;49.372;8.580;2023-08-08T03:37:00;21.90;92.20
32787;DHT22;19139;49.372;8.580;2023-08-08T03:39:27;21.90;92.20
32787;DHT22;19139;49.372;8.580;2023-08-08T03:41:53;22.00;92.20
32787;DHT22;19139;49.372;8.580;2023-08-08T03:44:20;22.00;92.30
32787;DHT22;19139;49.372;8.580;2023-08-08T03:46:47;21.90;92.20
32787;DHT22;19139;49.372;8.580;2023-08-08T03:49:13;22.00;92.30
32787;DHT22;19139;49.372;8.580;2023-08-08T03:51:40;22.00;92.30
32787;DHT22;19139;49.372;8.580;2023-08-08T03:54:07;22.00;92.30
32787;DHT22;19139;49.372;8.580;2023-08-08T03:56:34;22.00;92.20
32787;DHT22;19139;49.372;8.580;2023-08-08T03:59:01;21.90;92.20
32787;DHT22;19139;49.372;8.580;2023-08-08T04:01:28;22.00;92.20
32787;DHT22;19139;49.372;8.580;2023-08-08T04:03:54;22.00;92.20
32787;DHT22;19139;49.372;8.580;2023-08-08T04:06:21;21.90;92.20
32787;DHT22;19139;49.372;8.580;2023-08-08T04:08:48;22.00;92.30
32787;DHT22;19139;49.372;8.580;2023-08-08T04:11:14;21.90;92.20
32787;DHT22;19139;49.372;8.580;2023-08-08T04:13:41;22.00;92.20
32787;DHT22;19139;49.372;8.580;2023-08-08T04:16:08;21.90;92.20
32787;DHT22;19139;49.372;8.580;2023-08-08T04:18:34;22.00;92.20
32787;DHT22;19139;49.372;8.580;2023-08-08T04:21:01;21.90;92.20
32787;DHT22;19139;49.372;8.580;2023-08-08T04:23:27;21.90;92.20
32787;DHT22;19139;49.372;8.580;2023-08-08T04:25:54;22.00;92.20
32787;DHT22;19139;49.372;8.580;2023-08-08T04:28:21;22.00;92.20
32787;DHT22;19139;49.372;8.580;2023-08-08T04:30:48;21.90;92.20
32787;DHT22;19139;49.372;8.580;2023-08-08T04:33:14;22.00;92.20
32787;DHT22;19139;49.372;8.580;2023-08-08T04:35:41;21.90;92.20
32787;DHT22;19139;49.372;8.580;2023-08-08T04:38:08;21.90;92.20
32787;DHT22;19139;49.372;8.580;2023-08-08T04:40:35;21.90;92.20
32787;DHT22;19139;49.372;8.580;2023-08-08T04:43:03;21.90;92.20
32787;DHT22;19139;49.372;8.580;2023-08-08T04:45:30;21.90;92.20
32787;DHT22;19139;49.372;8.580;2023-08-08T04:47:56;21.90;92.20
32787;DHT22;19139;49.372;8.580;2023-08-08T04:50:24;21.90;92.20
32787;DHT22;19139;49.372;8.580;2023-08-08T04:52:51;22.00;92.20
32787;DHT22;19139;49.372;8.580;2023-08-08T04:55:17;21.90;92.20
32787;DHT22;19139;49.372;8.580;2023-08-08T04:57:44;22.00;92.20
32787;DHT22;19139;49.372;8.580;2023-08-08T05:02:49;21.90;92.20
32787;DHT22;19139;49.372;8.580;2023-08-08T05:05:16;21.90;92.20
32787;DHT22;19139;49.372;8.580;2023-08-08T05:07:42;21.90;92.20
32787;DHT22;19139;49.372;8.580;2023-08-08T05:10:09;21.90;92.20
32787;DHT22;19139;49.372;8.580;2023-08-08T05:12:36;21.90;92.20
32787;DHT22;19139;49.372;8.580;2023-08-08T05:15:03;21.90;92.20
32787;DHT22;19139;49.372;8.580;2023-08-08T05:17:30;21.90;92.20
32787;DHT22;19139;49.372;8.580;2023-08-08T05:19:58;21.90;92.20
32787;DHT22;19139;49.372;8.580;2023-08-08T05:22:24;21.90;92.20
32787;DHT22;19139;49.372;8.580;2023-08-08T05:24:51;21.90;92.20
32787;DHT22;19139;49.372;8.580;2023-08-08T05:27:18;21.90;92.20
32787;DHT22;19139;49.372;8.580;2023-08-08T05:29:44;21.90;92.20
32787;DHT22;19139;49.372;8.580;2023-08-08T05:32:11;21.90;92.20
32787;DHT22;19139;49.372;8.580;2023-08-08T05:34:38;21.90;92.10
32787;DHT22;19139;49.372;8.580;2023-08-08T05:37:04;21.90;92.10
32787;DHT22;19139;49.372;8.580;2023-08-08T05:39:43;21.90;92.10
32787;DHT22;19139;49.372;8.580;2023-08-08T05:42:10;21.90;92.20
32787;DHT22;19139;49.372;8.580;2023-08-08T05:44:36;21.90;92.20
32787;DHT22;19139;49.372;8.580;2023-08-08T05:47:03;21.90;92.10
32787;DHT22;19139;49.372;8.580;2023-08-08T05:49:30;21.90;92.20
32787;DHT22;19139;49.372;8.580;2023-08-08T05:51:57;21.90;92.10
32787;DHT22;19139;49.372;8.580;2023-08-08T05:54:24;21.90;92.10
32787;DHT22;19139;49.372;8.580;2023-08-08T05:56:51;21.90;92.10
32787;DHT22;19139;49.372;8.580;2023-08-08T05:59:17;21.90;92.10
32787;DHT22;19139;49.372;8.580;2023-08-08T06:01:44;21.90;92.10
32787;DHT22;19139;49.372;8.580;2023-08-08T06:04:11;21.90;92.10
32787;DHT22;19139;49.372;8.580;2023-08-08T06:06:38;21.90;92.20
32787;DHT22;19139;49.372;8.580;2023-08-08T06:09:05;21.90;92.10
32787;DHT22;19139;49.372;8.580;2023-08-08T06:11:31;21.90;92.10
32787;DHT22;19139;49.372;8.580;2023-08-08T06:13:58;21.90;92.10
32787;DHT22;19139;49.372;8.580;2023-08-08T06:16:25;21.90;92.10
32787;DHT22;19139;49.372;8.580;2023-08-08T06:18:52;21.90;92.10
32787;DHT22;19139;49.372;8.580;2023-08-08T06:21:19;21.90;92.10
32787;DHT22;19139;49.372;8.580;2023-08-08T06:23:46;21.90;92.10
32787;DHT22;19139;49.372;8.580;2023-08-08T06:26:14;21.90;92.10
32787;DHT22;19139;49.372;8.580;2023-08-08T06:28:41;21.90;92.10
32787;DHT22;19139;49.372;8.580;2023-08-08T06:31:07;21.90;92.10
32787;DHT22;19139;49.372;8.580;2023-08-08T06:33:34;21.90;92.10
32787;DHT22;19139;49.372;8.580;2023-08-08T06:36:02;21.90;92.10
32787;DHT22;19139;49.372;8.580;2023-08-08T06:38:29;21.90;92.10
32787;DHT22;19139;49.372;8.580;2023-08-08T06:41:01;21.90;92.10
32787;DHT22;19139;49.372;8.580;2023-08-08T06:43:29;21.90;92.10
32787;DHT22;19139;49.372;8.580;2023-08-08T06:45:56;21.90;92.10
32787;DHT22;19139;49.372;8.580;2023-08-08T06:48:24;21.90;92.10
32787;DHT22;19139;49.372;8.580;2023-08-08T06:50:50;21.90;92.10
32787;DHT22;19139;49.372;8.580;2023-08-08T06:53:18;21.80;92.00
32787;DHT22;19139;49.372;8.580;2023-08-08T06:55:44;21.80;92.00
32787;DHT22;19139;49.372;8.580;2023-08-08T06:58:11;21.90;92.10
32787;DHT22;19139;49.372;8.580;2023-08-08T07:00:38;21.90;92.10
32787;DHT22;19139;49.372;8.580;2023-08-08T07:03:04;21.80;92.10
32787;DHT22;19139;49.372;8.580;2023-08-08T07:05:32;21.90;92.10
32787;DHT22;19139;49.372;8.580;2023-08-08T07:07:58;21.80;92.00
32787;DHT22;19139;49.372;8.580;2023-08-08T07:10:25;21.80;92.00
32787;DHT22;19139;49.372;8.580;2023-08-08T07:12:53;21.80;92.00
32787;DHT22;19139;49.372;8.580;2023-08-08T07:15:20;21.90;92.00
32787;DHT22;19139;49.372;8.580;2023-08-08T07:17:46;21.80;92.00
32787;DHT22;19139;49.372;8.580;2023-08-08T07:20:13;21.90;92.10
32787;DHT22;19139;49.372;8.580;2023-08-08T07:22:44;21.80;92.00
32787;DHT22;19139;49.372;8.580;2023-08-08T07:25:11;21.80;92.00
32787;DHT22;19139;49.372;8.580;2023-08-08T07:27:38;21.80;92.00
32787;DHT22;19139;49.372;8.580;2023-08-08T07:30:05;21.80;92.00
32787;DHT22;19139;49.372;8.580;2023-08-08T07:32:33;21.90;92.10
32787;DHT22;19139;49.372;8.580;2023-08-08T07:35:00;21.80;92.00
32787;DHT22;19139;49.372;8.580;2023-08-08T07:37:29;21.80;92.00
32787;DHT22;19139;49.372;8.580;2023-08-08T07:39:56;21.90;92.00
32787;DHT22;19139;49.372;8.580;2023-08-08T07:42:23;21.80;92.00
32787;DHT22;19139;49.372;8.580;2023-08-08T07:44:50;21.90;92.00
32787;DHT22;19139;49.372;8.580;2023-08-08T07:47:16;21.90;92.00
32787;DHT22;19139;49.372;8.580;2023-08-08T07:49:43;21.80;92.00
32787;DHT22;19139;49.372;8.580;2023-08-08T07:52:10;21.80;92.00
32787;DHT22;19139;49.372;8.580;2023-08-08T07:54:36;21.90;92.00
32787;DHT22;19139;49.372;8.580;2023-08-08T07:57:03;21.80;92.00
32787;DHT22;19139;49.372;8.580;2023-08-08T07:59:30;21.80;92.00
32787;DHT22;19139;49.372;8.580;2023-08-08T08:01:57;21.80;92.00
32787;DHT22;19139;49.372;8.580;2023-08-08T08:04:24;21.80;92.00
32787;DHT22;19139;49.372;8.580;2023-08-08T08:06:50;21.90;92.00
32787;DHT22;19139;49.372;8.580;2023-08-08T08:09:17;21.80;92.00
32787;DHT22;19139;49.372;8.580;2023-08-08T08:11:43;21.80;92.00
32787;DHT22;19139;49.372;8.580;2023-08-08T08:14:10;21.80;92.00
32787;DHT22;19139;49.372;8.580;2023-08-08T08:16:37;21.80;92.00
32787;DHT22;19139;49.372;8.580;2023-08-08T08:19:03;21.80;92.00
32787;DHT22;19139;49.372;8.580;2023-08-08T08:21:30;21.80;92.00
32787;DHT22;19139;49.372;8.580;2023-08-08T08:23:57;21.80;92.00
32787;DHT22;19139;49.372;8.580;2023-08-08T08:26:24;21.80;92.00
32787;DHT22;19139;49.372;8.580;2023-08-08T08:28:50;21.80;92.00
32787;DHT22;19139;49.372;8.580;2023-08-08T08:31:17;21.80;92.00
32787;DHT22;19139;49.372;8.580;2023-08-08T08:33:44;21.80;92.00
32787;DHT22;19139;49.372;8.580;2023-08-08T08:36:11;21.80;92.00
32787;DHT22;19139;49.372;8.580;2023-08-08T08:38:40;21.80;92.00
32787;DHT22;19139;49.372;8.580;2023-08-08T08:41:08;21.80;92.00
32787;DHT22;19139;49.372;8.580;2023-08-08T08:43:35;21.80;92.00
32787;DHT22;19139;49.372;8.580;2023-08-08T08:46:03;21.80;92.00
32787;DHT22;19139;49.372;8.580;2023-08-08T08:48:30;21.80;92.00
32787;DHT22;19139;49.372;8.580;2023-08-08T08:50:58;21.80;92.00
32787;DHT22;19139;49.372;8.580;2023-08-08T08:53:25;21.80;92.00
32787;DHT22;19139;49.372;8.580;2023-08-08T08:55:52;21.80;92.00
32787;DHT22;19139;49.372;8.580;2023-08-08T08:58:21;21.80;92.00
32787;DHT22;19139;49.372;8.580;2023-08-08T09:00:49;21.80;92.00
32787;DHT22;19139;49.372;8.580;2023-08-08T09:03:16;21.80;92.00
32787;DHT22;19139;49.372;8.580;2023-08-08T09:05:43;21.90;92.00
32787;DHT22;19139;49.372;8.580;2023-08-08T09:08:11;21.90;92.00
32787;DHT22;19139;49.372;8.580;2023-08-08T09:10:38;21.90;92.00
32787;DHT22;19139;49.372;8.580;2023-08-08T09:13:05;21.80;92.00
32787;DHT22;19139;49.372;8.580;2023-08-08T09:15:33;21.90;92.00
32787;DHT22;19139;49.372;8.580;2023-08-08T09:18:00;21.90;91.90
32787;DHT22;19139;49.372;8.580;2023-08-08T09:20:27;21.90;92.00
32787;DHT22;19139;49.372;8.580;2023-08-08T09:22:55;21.80;91.90
32787;DHT22;19139;49.372;8.580;2023-08-08T09:25:22;21.80;91.90
32787;DHT22;19139;49.372;8.580;2023-08-08T09:27:52;21.80;91.90
32787;DHT22;19139;49.372;8.580;2023-08-08T09:30:20;21.90;91.90
32787;DHT22;19139;49.372;8.580;2023-08-08T09:32:47;21.90;91.90
32787;DHT22;19139;49.372;8.580;2023-08-08T09:35:14;21.90;91.90
32787;DHT22;19139;49.372;8.580;2023-08-08T09:37:41;21.90;92.30
32787;DHT22;19139;49.372;8.580;2023-08-08T09:40:08;21.90;91.90
32787;DHT22;19139;49.372;8.580;2023-08-08T09:42:39;21.80;91.90
32787;DHT22;19139;49.372;8.580;2023-08-08T09:45:08;21.90;91.90
32787;DHT22;19139;49.372;8.580;2023-08-08T09:47:35;21.90;91.90
32787;DHT22;19139;49.372;8.580;2023-08-08T09:50:04;21.80;91.90
32787;DHT22;19139;49.372;8.580;2023-08-08T09:52:33;21.90;91.90
32787;DHT22;19139;49.372;8.580;2023-08-08T09:55:00;21.90;91.90
32787;DHT22;19139;49.372;8.580;2023-08-08T09:57:29;21.90;91.90
32787;DHT22;19139;49.372;8.580;2023-08-08T09:59:56;21.90;91.90
32787;DHT22;19139;49.372;8.580;2023-08-08T10:02:23;21.90;91.90
32787;DHT22;19139;49.372;8.580;2023-08-08T10:04:50;21.90;91.90
32787;DHT22;19139;49.372;8.580;2023-08-08T10:07:18;21.80;91.90
32787;DHT22;19139;49.372;8.580;2023-08-08T10:09:45;21.90;91.90
32787;DHT22;19139;49.372;8.580;2023-08-08T10:12:12;21.90;91.90
32787;DHT22;19139;49.372;8.580;2023-08-08T10:14:42;21.90;91.90
32787;DHT22;19139;49.372;8.580;2023-08-08T10:17:13;21.90;91.90
32787;DHT22;19139;49.372;8.580;2023-08-08T10:19:49;21.90;91.90
32787;DHT22;19139;49.372;8.580;2023-08-08T10:22:20;21.90;91.90
32787;DHT22;19139;49.372;8.580;2023-08-08T10:24:52;21.80;91.90
32787;DHT22;19139;49.372;8.580;2023-08-08T10:27:32;21.90;91.90
32787;DHT22;19139;49.372;8.580;2023-08-08T10:30:08;21.90;92.30
32787;DHT22;19139;49.372;8.580;2023-08-08T10:32:42;21.90;91.90
32787;DHT22;19139;49.372;8.580;2023-08-08T10:35:10;21.90;91.90
32787;DHT22;19139;49.372;8.580;2023-08-08T10:37:38;21.90;91.90
32787;DHT22;19139;49.372;8.580;2023-08-08T10:40:05;21.90;91.90
32787;DHT22;19139;49.372;8.580;2023-08-08T10:42:42;21.90;91.90
32787;DHT22;19139;49.372;8.580;2023-08-08T10:45:10;21.90;91.90
32787;DHT22;19139;49.372;8.580;2023-08-08T10:47:40;21.90;91.90
32787;DHT22;19139;49.372;8.580;2023-08-08T10:50:10;21.90;91.90
32787;DHT22;19139;49.372;8.580;2023-08-08T10:55:25;21.90;91.90
32787;DHT22;19139;49.372;8.580;2023-08-08T10:58:04;21.90;91.90
32787;DHT22;19139;49.372;8.580;2023-08-08T11:00:32;21.90;91.90
32787;DHT22;19139;49.372;8.580;2023-08-08T11:02:59;21.90;91.90
32787;DHT22;19139;49.372;8.580;2023-08-08T11:05:30;21.90;91.90
32787;DHT22;19139;49.372;8.580;2023-08-08T11:07:57;21.90;91.90
32787;DHT22;19139;49.372;8.580;2023-08-08T11:10:24;21.90;91.90
32787;DHT22;19139;49.372;8.580;2023-08-08T11:13:07;21.90;91.90
32787;DHT22;19139;49.372;8.580;2023-08-08T11:15:35;21.90;91.90
32787;DHT22;19139;49.372;8.580;2023-08-08T11:18:03;21.90;91.90
32787;DHT22;19139;49.372;8.580;2023-08-08T11:20:32;21.90;91.90
32787;DHT22;19139;49.372;8.580;2023-08-08T11:23:00;21.90;91.90
32787;DHT22;19139;49.372;8.580;2023-08-08T11:25:28;21.90;91.90
32787;DHT22;19139;49.372;8.580;2023-08-08T11:27:56;21.90;91.90
32787;DHT22;19139;49.372;8.580;2023-08-08T11:30:23;21.90;91.90
32787;DHT22;19139;49.372;8.580;2023-08-08T11:32:51;22.00;91.80
32787;DHT22;19139;49.372;8.580;2023-08-08T11:35:24;21.90;91.50
32787;DHT22;19139;49.372;8.580;2023-08-08T11:37:52;21.90;91.50
32787;DHT22;19139;49.372;8.580;2023-08-08T11:40:19;21.90;91.30
32787;DHT22;19139;49.372;8.580;2023-08-08T11:42:47;22.00;91.40
32787;DHT22;19139;49.372;8.580;2023-08-08T11:45:14;22.00;91.50
32787;DHT22;19139;49.372;8.580;2023-08-08T11:47:40;22.00;91.60
32787;DHT22;19139;49.372;8.580;2023-08-08T11:50:09;22.00;91.70
32787;DHT22;19139;49.372;8.580;2023-08-08T11:52:45;22.00;91.70
32787;DHT22;19139;49.372;8.580;2023-08-08T11:55:12;22.10;91.70
32787;DHT22;19139;49.372;8.580;2023-08-08T11:57:40;22.10;91.70
32787;DHT22;19139;49.372;8.580;2023-08-08T12:00:10;22.10;91.60
32787;DHT22;19139;49.372;8.580;2023-08-08T12:02:42;22.10;91.60
32787;DHT22;19139;49.372;8.580;2023-08-08T12:05:10;22.20;91.60
32787;DHT22;19139;49.372;8.580;2023-08-08T12:07:38;22.10;91.60
32787;DHT22;19139;49.372;8.580;2023-08-08T12:10:22;22.10;91.60
32787;DHT22;19139;49.372;8.580;2023-08-08T12:12:54;22.10;91.70
32787;DHT22;19139;49.372;8.580;2023-08-08T12:15:22;22.10;91.70
32787;DHT22;19139;49.372;8.580;2023-08-08T12:17:49;22.10;91.70
32787;DHT22;19139;49.372;8.580;2023-08-08T12:20:16;22.10;91.70
32787;DHT22;19139;49.372;8.580;2023-08-08T12:22:43;22.10;91.70
32787;DHT22;19139;49.372;8.580;2023-08-08T12:25:09;22.10;91.70
32787;DHT22;19139;49.372;8.580;2023-08-08T12:27:36;22.10;91.70
32787;DHT22;19139;49.372;8.580;2023-08-08T12:30:06;22.10;91.80
32787;DHT22;19139;49.372;8.580;2023-08-08T12:32:33;22.10;91.80
32787;DHT22;19139;49.372;8.580;2023-08-08T12:35:00;22.10;91.80
32787;DHT22;19139;49.372;8.580;2023-08-08T12:37:27;22.10;91.80
32787;DHT22;19139;49.372;8.580;2023-08-08T12:39:53;22.10;91.80
32787;DHT22;19139;49.372;8.580;2023-08-08T12:42:20;22.10;91.80
32787;DHT22;19139;49.372;8.580;2023-08-08T12:44:47;22.10;91.80
32787;DHT22;19139;49.372;8.580;2023-08-08T12:47:18;22.10;91.80
32787;DHT22;19139;49.372;8.580;2023-08-08T12:49:46;22.10;91.80
32787;DHT22;19139;49.372;8.580;2023-08-08T12:52:12;22.10;91.80
32787;DHT22;19139;49.372;8.580;2023-08-08T12:54:40;22.10;91.80
32787;DHT22;19139;49.372;8.580;2023-08-08T12:57:06;22.10;91.80
32787;DHT22;19139;49.372;8.580;2023-08-08T12:59:33;22.10;91.80
32787;DHT22;19139;49.372;8.580;2023-08-08T13:01:59;22.10;91.80
32787;DHT22;19139;49.372;8.580;2023-08-08T13:04:27;22.10;91.80
32787;DHT22;19139;49.372;8.580;2023-08-08T13:06:53;22.10;91.80
32787;DHT22;19139;49.372;8.580;2023-08-08T13:09:20;22.10;91.80
32787;DHT22;19139;49.372;8.580;2023-08-08T13:11:47;22.10;91.80
32787;DHT22;19139;49.372;8.580;2023-08-08T13:14:13;22.10;91.80
32787;DHT22;19139;49.372;8.580;2023-08-08T13:16:40;22.10;91.80
32787;DHT22;19139;49.372;8.580;2023-08-08T13:19:07;22.10;91.80
32787;DHT22;19139;49.372;8.580;2023-08-08T13:21:34;22.10;91.80
32787;DHT22;19139;49.372;8.580;2023-08-08T13:24:00;22.10;91.80
32787;DHT22;19139;49.372;8.580;2023-08-08T13:26:27;22.10;91.80
32787;DHT22;19139;49.372;8.580;2023-08-08T13:28:54;22.10;91.80
32787;DHT22;19139;49.372;8.580;2023-08-08T13:31:21;22.10;91.80
32787;DHT22;19139;49.372;8.580;2023-08-08T13:33:47;22.10;91.80
32787;DHT22;19139;49.372;8.580;2023-08-08T13:36:14;22.10;91.80
32787;DHT22;19139;49.372;8.580;2023-08-08T13:38:41;22.10;91.80
32787;DHT22;19139;49.372;8.580;2023-08-08T13:41:07;22.20;91.90
32787;DHT22;19139;49.372;8.580;2023-08-08T13:43:34;22.10;91.80
32787;DHT22;19139;49.372;8.580;2023-08-08T13:46:00;22.10;91.80
32787;DHT22;19139;49.372;8.580;2023-08-08T13:48:29;22.10;91.80
32787;DHT22;19139;49.372;8.580;2023-08-08T13:50:56;22.20;91.90
32787;DHT22;19139;49.372;8.580;2023-08-08T13:53:22;22.20;91.90
32787;DHT22;19139;49.372;8.580;2023-08-08T13:55:49;22.20;91.90
32787;DHT22;19139;49.372;8.580;2023-08-08T13:58:15;22.10;91.80
32787;DHT22;19139;49.372;8.580;2023-08-08T14:00:42;22.10;91.90
32787;DHT22;19139;49.372;8.580;2023-08-08T14:03:09;22.20;91.90
32787;DHT22;19139;49.372;8.580;2023-08-08T14:05:35;22.20;91.90
32787;DHT22;19139;49.372;8.580;2023-08-08T14:08:04;22.20;92.30
32787;DHT22;19139;49.372;8.580;2023-08-08T14:10:31;22.20;91.90
32787;DHT22;19139;49.372;8.580;2023-08-08T14:12:58;22.20;91.90
32787;DHT22;19139;49.372;8.580;2023-08-08T14:15:24;22.20;91.90
32787;DHT22;19139;49.372;8.580;2023-08-08T14:17:51;22.20;91.90
32787;DHT22;19139;49.372;8.580;2023-08-08T14:20:18;22.20;91.90
32787;DHT22;19139;49.372;8.580;2023-08-08T14:22:45;22.20;91.90
32787;DHT22;19139;49.372;8.580;2023-08-08T14:25:15;22.20;91.90
32787;DHT22;19139;49.372;8.580;2023-08-08T14:27:42;22.20;91.90
32787;DHT22;19139;49.372;8.580;2023-08-08T14:30:09;22.20;92.30
32787;DHT22;19139;49.372;8.580;2023-08-08T14:32:36;22.20;91.90
32787;DHT22;19139;49.372;8.580;2023-08-08T14:35:04;22.20;91.90
32787;DHT22;19139;49.372;8.580;2023-08-08T14:37:31;22.20;91.90
32787;DHT22;19139;49.372;8.580;2023-08-08T14:39:58;22.20;91.90
32787;DHT22;19139;49.372;8.580;2023-08-08T14:42:25;22.20;91.90
32787;DHT22;19139;49.372;8.580;2023-08-08T14:44:52;22.20;92.30
32787;DHT22;19139;49.372;8.580;2023-08-08T14:47:18;22.20;91.90
32787;DHT22;19139;49.372;8.580;2023-08-08T14:49:45;22.20;91.90
32787;DHT22;19139;49.372;8.580;2023-08-08T14:52:11;22.20;91.90
32787;DHT22;19139;49.372;8.580;2023-08-08T14:54:39;22.20;91.90
32787;DHT22;19139;49.372;8.580;2023-08-08T14:57:06;22.20;91.90
32787;DHT22;19139;49.372;8.580;2023-08-08T14:59:32;22.20;91.90
32787;DHT22;19139;49.372;8.580;2023-08-08T15:01:59;22.20;91.90
32787;DHT22;19139;49.372;8.580;2023-08-08T15:04:26;22.20;91.90
32787;DHT22;19139;49.372;8.580;2023-08-08T15:06:53;22.20;91.90
32787;DHT22;19139;49.372;8.580;2023-08-08T15:09:19;22.20;92.00
32787;DHT22;19139;49.372;8.580;2023-08-08T15:11:46;22.20;92.00
32787;DHT22;19139;49.372;8.580;2023-08-08T15:14:12;22.20;92.00
32787;DHT22;19139;49.372;8.580;2023-08-08T15:16:39;22.20;92.00
32787;DHT22;19139;49.372;8.580;2023-08-08T15:19:06;22.20;92.00
32787;DHT22;19139;49.372;8.580;2023-08-08T15:21:33;22.20;91.90
32787;DHT22;19139;49.372;8.580;2023-08-08T15:23:59;22.20;92.00
32787;DHT22;19139;49.372;8.580;2023-08-08T15:26:26;22.20;92.00
32787;DHT22;19139;49.372;8.580;2023-08-08T15:28:53;22.20;92.00
32787;DHT22;19139;49.372;8.580;2023-08-08T15:31:19;22.20;92.00
32787;DHT22;19139;49.372;8.580;2023-08-08T15:33:46;22.30;92.00
32787;DHT22;19139;49.372;8.580;2023-08-08T15:36:13;22.20;92.00